Terminal Aerodrome Forecast
Issued by NWS Charleston, WV

Current Version | Previous Version | Graphics & Text | Print | Product List | Glossary On
Versions: 1 2 3 4 5 6 7 8 9 10 11 12 13 14 15 16 17 18 19 20 21 22 23 24 25 26
127
FTUS41 KRLX 041130
TAFEKN
TAF
KEKN 041130Z 0412/0512 00000KT P6SM OVC100
     FM041600 16005KT P6SM OVC070
     FM050200 17006KT 6SM -RA OVC030
     FM050600 21006KT 2SM -RA SCT008 OVC030
     FM050800 23006KT 2SM -RA OVC008
     FM051100 27006KT 3SM -DZ OVC010=

USA.gov is the U.S. government's official web portal to all federal, state and local government web resources and services.